Time,TemperatureF,DewpointF,PressureIn,WindDirection,WindDirectionDegrees,WindSpeedMPH,WindSpeedGustMPH,Humidity,HourlyPrecipIn,Conditions,Clouds,dailyrainin,SolarRadiationWatts/m^2,SoftwareType,DateUTC
2013-05-31 00:01:00,47.0,35.0,-100.00,WNW,288,2.0,4.0,61,-99.99,,,0.00,0.000000,,2013-05-31 06:01:00,
2013-05-31 00:11:00,47.0,35.0,-100.00,WNW,288,2.0,4.0,61,-99.99,,,0.00,0.000000,,2013-05-31 06:11:00,
2013-05-31 00:31:00,45.0,34.0,-100.00,SSE,161,1.0,4.0,63,-99.99,,,0.00,0.000000,,2013-05-31 06:31:00,
2013-05-31 00:41:00,45.0,34.0,-100.00,SSE,161,1.0,4.0,63,-99.99,,,0.00,0.000000,,2013-05-31 06:41:00,
2013-05-31 00:52:00,45.0,34.0,-100.00,SSE,161,1.0,4.0,63,-99.99,,,0.00,0.000000,,2013-05-31 06:52:00,
2013-05-31 01:02:00,45.0,34.0,-100.00,SSE,161,1.0,4.0,63,-99.99,,,0.00,0.000000,,2013-05-31 07:02:00,
2013-05-31 01:11:00,45.0,34.0,-100.00,SSE,161,1.0,4.0,63,-99.99,,,0.00,0.000000,,2013-05-31 07:11:00,
2013-05-31 01:32:00,45.0,34.0,-100.00,East,91,1.0,4.0,63,-99.99,,,0.00,0.000000,,2013-05-31 07:32:00,
2013-05-31 01:41:00,45.0,34.0,-100.00,East,91,1.0,4.0,63,-99.99,,,0.00,0.000000,,2013-05-31 07:41:00,
2013-05-31 01:52:00,45.0,34.0,-100.00,East,91,1.0,4.0,63,-99.99,,,0.00,0.000000,,2013-05-31 07:52:00,
2013-05-31 02:01:00,45.0,34.0,-100.00,East,91,1.0,4.0,63,-99.99,,,0.00,0.000000,,2013-05-31 08:01:00,
2013-05-31 02:11:00,45.0,34.0,-100.00,East,91,1.0,4.0,63,-99.99,,,0.00,0.000000,,2013-05-31 08:11:00,
2013-05-31 02:31:00,47.0,33.0,-100.00,NW,313,2.0,7.0,57,-99.99,,,0.00,0.000000,,2013-05-31 08:31:00,
2013-05-31 02:42:00,47.0,33.0,-100.00,NW,313,2.0,7.0,57,-99.99,,,0.00,0.000000,,2013-05-31 08:42:00,
2013-05-31 02:52:00,47.0,33.0,-100.00,NW,313,2.0,7.0,57,-99.99,,,0.00,0.000000,,2013-05-31 08:52:00,
2013-05-31 03:01:00,47.0,33.0,-100.00,NW,313,2.0,7.0,57,-99.99,,,0.00,0.000000,,2013-05-31 09:01:00,
2013-05-31 03:11:00,47.0,33.0,-100.00,NW,313,2.0,7.0,57,-99.99,,,0.00,0.000000,,2013-05-31 09:11:00,
2013-05-31 03:32:00,40.0,34.0,-100.00,SE,141,1.0,3.0,79,-99.99,,,0.00,0.000000,,2013-05-31 09:32:00,
2013-05-31 03:43:00,40.0,34.0,-100.00,SE,141,1.0,3.0,79,-99.99,,,0.00,0.000000,,2013-05-31 09:43:00,
2013-05-31 03:53:00,40.0,34.0,-100.00,SE,141,1.0,3.0,79,-99.99,,,0.00,0.000000,,2013-05-31 09:53:00,
2013-05-31 04:02:00,40.0,34.0,-100.00,SE,141,1.0,3.0,79,-99.99,,,0.00,0.000000,,2013-05-31 10:02:00,
2013-05-31 04:12:00,40.0,34.0,-100.00,SE,141,1.0,3.0,79,-99.99,,,0.00,0.000000,,2013-05-31 10:12:00,
2013-05-31 04:33:00,40.0,33.0,-100.00,SSE,155,2.0,4.0,75,-99.99,,,0.00,0.000000,,2013-05-31 10:33:00,
2013-05-31 04:42:00,40.0,33.0,-100.00,SSE,155,2.0,4.0,75,-99.99,,,0.00,0.000000,,2013-05-31 10:42:00,
2013-05-31 04:52:00,40.0,33.0,-100.00,SSE,155,2.0,4.0,75,-99.99,,,0.00,0.000000,,2013-05-31 10:52:00,
2013-05-31 05:01:00,40.0,33.0,-100.00,SSE,155,2.0,4.0,75,-99.99,,,0.00,0.000000,,2013-05-31 11:01:00,
2013-05-31 05:11:00,40.0,33.0,-100.00,SSE,155,2.0,4.0,75,-99.99,,,0.00,0.000000,,2013-05-31 11:11:00,
2013-05-31 05:32:00,41.0,34.0,-100.00,South,178,1.0,3.0,78,-99.99,,,0.00,0.000000,,2013-05-31 11:32:00,
2013-05-31 05:42:00,41.0,34.0,-100.00,South,178,1.0,3.0,78,-99.99,,,0.00,0.000000,,2013-05-31 11:42:00,
2013-05-31 05:52:00,41.0,34.0,-100.00,South,178,1.0,3.0,78,-99.99,,,0.00,0.000000,,2013-05-31 11:52:00,
2013-05-31 06:01:00,41.0,34.0,-100.00,South,178,1.0,3.0,78,-99.99,,,0.00,0.000000,,2013-05-31 12:01:00,
2013-05-31 06:11:00,41.0,34.0,-100.00,South,178,1.0,3.0,78,-99.99,,,0.00,0.000000,,2013-05-31 12:11:00,
2013-05-31 06:31:00,41.0,38.0,-100.00,SSE,148,1.0,4.0,86,-99.99,,,0.00,2.910000,,2013-05-31 12:31:00,
2013-05-31 06:41:00,41.0,38.0,-100.00,SSE,148,1.0,4.0,86,-99.99,,,0.00,2.910000,,2013-05-31 12:41:00,
2013-05-31 06:52:00,41.0,38.0,-100.00,SSE,148,1.0,4.0,86,-99.99,,,0.00,2.910000,,2013-05-31 12:52:00,
2013-05-31 07:01:00,41.0,38.0,-100.00,SSE,148,1.0,4.0,86,-99.99,,,0.00,2.910000,,2013-05-31 13:01:00,
2013-05-31 07:11:00,41.0,38.0,-100.00,SSE,148,1.0,4.0,86,-99.99,,,0.00,2.910000,,2013-05-31 13:11:00,
2013-05-31 07:32:00,45.0,38.0,-100.00,South,184,1.0,2.0,78,-99.99,,,0.00,66.010002,,2013-05-31 13:32:00,
2013-05-31 07:42:00,45.0,38.0,-100.00,South,184,1.0,2.0,78,-99.99,,,0.00,66.010002,,2013-05-31 13:42:00,
2013-05-31 07:52:00,45.0,38.0,-100.00,South,184,1.0,2.0,78,-99.99,,,0.00,66.010002,,2013-05-31 13:52:00,
2013-05-31 08:02:00,45.0,38.0,-100.00,South,184,1.0,2.0,78,-99.99,,,0.00,66.010002,,2013-05-31 14:02:00,
2013-05-31 08:11:00,45.0,38.0,-100.00,South,184,1.0,2.0,78,-99.99,,,0.00,66.010002,,2013-05-31 14:11:00,
2013-05-31 08:32:00,48.0,39.0,-100.00,SSE,162,2.0,5.0,71,-99.99,,,0.00,148.759995,,2013-05-31 14:32:00,
2013-05-31 08:41:00,48.0,39.0,-100.00,SSE,162,2.0,5.0,71,-99.99,,,0.00,148.759995,,2013-05-31 14:41:00,
2013-05-31 08:52:00,48.0,39.0,-100.00,SSE,162,2.0,5.0,71,-99.99,,,0.00,148.759995,,2013-05-31 14:52:00,
2013-05-31 09:01:00,48.0,39.0,-100.00,SSE,162,2.0,5.0,71,-99.99,,,0.00,148.759995,,2013-05-31 15:01:00,
2013-05-31 09:11:00,48.0,39.0,-100.00,SSE,162,2.0,5.0,71,-99.99,,,0.00,148.759995,,2013-05-31 15:11:00,
2013-05-31 09:33:00,52.0,35.0,-100.00,WNW,288,2.0,6.0,53,-99.99,,,0.00,251.039993,,2013-05-31 15:33:00,
2013-05-31 09:43:00,52.0,35.0,-100.00,WNW,288,2.0,6.0,53,-99.99,,,0.00,251.039993,,2013-05-31 15:43:00,
2013-05-31 09:53:00,52.0,35.0,-100.00,WNW,288,2.0,6.0,53,-99.99,,,0.00,251.039993,,2013-05-31 15:53:00,
2013-05-31 10:03:00,52.0,35.0,-100.00,WNW,288,2.0,6.0,53,-99.99,,,0.00,251.039993,,2013-05-31 16:03:00,
2013-05-31 10:12:00,52.0,35.0,-100.00,WNW,288,2.0,6.0,53,-99.99,,,0.00,251.039993,,2013-05-31 16:12:00,
2013-05-31 10:33:00,56.0,36.0,-100.00,NNE,29,1.0,4.0,48,-99.99,,,0.00,426.410004,,2013-05-31 16:33:00,
2013-05-31 10:42:00,56.0,36.0,-100.00,NNE,29,1.0,4.0,48,-99.99,,,0.00,426.410004,,2013-05-31 16:42:00,
2013-05-31 10:52:00,56.0,36.0,-100.00,NNE,29,1.0,4.0,48,-99.99,,,0.00,426.410004,,2013-05-31 16:52:00,
2013-05-31 11:02:00,56.0,36.0,-100.00,NNE,29,1.0,4.0,48,-99.99,,,0.00,426.410004,,2013-05-31 17:02:00,
2013-05-31 11:12:00,56.0,36.0,-100.00,NNE,29,1.0,4.0,48,-99.99,,,0.00,426.410004,,2013-05-31 17:12:00,
2013-05-31 11:42:00,58.0,35.0,-100.00,North,9,1.0,7.0,42,-99.99,,,0.00,672.450012,,2013-05-31 17:42:00,
2013-05-31 11:52:00,58.0,35.0,-100.00,North,9,1.0,7.0,42,-99.99,,,0.00,672.450012,,2013-05-31 17:52:00,
2013-05-31 12:01:00,58.0,35.0,-100.00,North,9,1.0,7.0,42,-99.99,,,0.00,672.450012,,2013-05-31 18:01:00,
2013-05-31 12:11:00,58.0,35.0,-100.00,North,9,1.0,7.0,42,-99.99,,,0.00,672.450012,,2013-05-31 18:11:00,
2013-05-31 12:41:00,57.0,32.0,-100.00,NW,313,3.0,9.0,38,-99.99,,,0.00,500.209991,,2013-05-31 18:41:00,
2013-05-31 12:52:00,57.0,32.0,-100.00,NW,313,3.0,9.0,38,-99.99,,,0.00,500.209991,,2013-05-31 18:52:00,
2013-05-31 13:01:00,57.0,32.0,-100.00,NW,313,3.0,9.0,38,-99.99,,,0.00,500.209991,,2013-05-31 19:01:00,
2013-05-31 13:11:00,57.0,32.0,-100.00,NW,313,3.0,9.0,38,-99.99,,,0.00,500.209991,,2013-05-31 19:11:00,
2013-05-31 13:42:00,58.0,34.0,-100.00,NNW,328,1.0,4.0,39,-99.99,,,0.00,378.179993,,2013-05-31 19:42:00,
2013-05-31 13:52:00,58.0,34.0,-100.00,NNW,328,1.0,4.0,39,-99.99,,,0.00,378.179993,,2013-05-31 19:52:00,
2013-05-31 14:01:00,58.0,34.0,-100.00,NNW,328,1.0,4.0,39,-99.99,,,0.00,378.179993,,2013-05-31 20:01:00,
2013-05-31 14:11:00,58.0,34.0,-100.00,NNW,328,1.0,4.0,39,-99.99,,,0.00,378.179993,,2013-05-31 20:11:00,
2013-05-31 14:41:00,59.0,31.0,-100.00,South,177,3.0,6.0,34,-99.99,,,0.00,620.030029,,2013-05-31 20:41:00,
2013-05-31 14:52:00,59.0,31.0,-100.00,South,177,3.0,6.0,34,-99.99,,,0.00,620.030029,,2013-05-31 20:52:00,
2013-05-31 15:01:00,59.0,31.0,-100.00,South,177,3.0,6.0,34,-99.99,,,0.00,620.030029,,2013-05-31 21:01:00,
2013-05-31 15:11:00,59.0,31.0,-100.00,South,177,3.0,6.0,34,-99.99,,,0.00,620.030029,,2013-05-31 21:11:00,
2013-05-31 15:42:00,59.0,30.0,-100.00,SW,231,3.0,10.0,32,-99.99,,,0.00,619.919983,,2013-05-31 21:42:00,
2013-05-31 15:54:00,59.0,30.0,-100.00,SW,231,3.0,10.0,32,-99.99,,,0.00,619.919983,,2013-05-31 21:54:00,
2013-05-31 16:02:00,59.0,30.0,-100.00,SW,231,3.0,10.0,32,-99.99,,,0.00,619.919983,,2013-05-31 22:02:00,
2013-05-31 16:12:00,59.0,30.0,-100.00,SW,231,3.0,10.0,32,-99.99,,,0.00,619.919983,,2013-05-31 22:12:00,
2013-05-31 16:42:00,62.0,32.0,-100.00,WSW,240,3.0,10.0,31,-99.99,,,0.00,1018.090027,,2013-05-31 22:42:00,
2013-05-31 16:53:00,62.0,32.0,-100.00,WSW,240,3.0,10.0,31,-99.99,,,0.00,1018.090027,,2013-05-31 22:53:00,
2013-05-31 17:02:00,62.0,32.0,-100.00,WSW,240,3.0,10.0,31,-99.99,,,0.00,1018.090027,,2013-05-31 23:02:00,
2013-05-31 17:12:00,62.0,32.0,-100.00,WSW,240,3.0,10.0,31,-99.99,,,0.00,1018.090027,,2013-05-31 23:12:00,
2013-05-31 17:32:00,62.0,33.0,-100.00,WSW,258,5.0,12.0,33,-99.99,,,0.00,758.570007,,2013-05-31 23:32:00,
2013-05-31 17:42:00,62.0,33.0,-100.00,WSW,258,5.0,12.0,33,-99.99,,,0.00,758.570007,,2013-05-31 23:42:00,
2013-05-31 17:52:00,62.0,33.0,-100.00,WSW,258,5.0,12.0,33,-99.99,,,0.00,758.570007,,2013-05-31 23:52:00,
2013-05-31 18:01:00,62.0,33.0,-100.00,WSW,258,5.0,12.0,33,-99.99,,,0.00,758.570007,,2013-06-01 00:01:00,
2013-05-31 18:11:00,62.0,33.0,-100.00,WSW,258,5.0,12.0,33,-99.99,,,0.00,758.570007,,2013-06-01 00:11:00,
2013-05-31 18:32:00,62.0,31.0,-100.00,SW,236,4.0,12.0,31,-99.99,,,0.00,374.459991,,2013-06-01 00:32:00,
2013-05-31 18:42:00,62.0,31.0,-100.00,SW,236,4.0,12.0,31,-99.99,,,0.00,374.459991,,2013-06-01 00:42:00,
2013-05-31 18:52:00,62.0,31.0,-100.00,SW,236,4.0,12.0,31,-99.99,,,0.00,374.459991,,2013-06-01 00:52:00,
2013-05-31 19:01:00,62.0,31.0,-100.00,SW,236,4.0,12.0,31,-99.99,,,0.00,374.459991,,2013-06-01 01:01:00,
2013-05-31 19:11:00,62.0,31.0,-100.00,SW,236,4.0,12.0,31,-99.99,,,0.00,374.459991,,2013-06-01 01:11:00,
2013-05-31 19:32:00,59.0,32.0,-100.00,SW,236,1.0,3.0,35,-99.99,,,0.00,76.940002,,2013-06-01 01:32:00,
2013-05-31 19:42:00,59.0,32.0,-100.00,SW,236,1.0,3.0,35,-99.99,,,0.00,76.940002,,2013-06-01 01:42:00,
2013-05-31 19:52:00,59.0,32.0,-100.00,SW,236,1.0,3.0,35,-99.99,,,0.00,76.940002,,2013-06-01 01:52:00,
2013-05-31 20:01:00,59.0,32.0,-100.00,SW,236,1.0,3.0,35,-99.99,,,0.00,76.940002,,2013-06-01 02:01:00,
2013-05-31 20:11:00,59.0,32.0,-100.00,SW,236,1.0,3.0,35,-99.99,,,0.00,76.940002,,2013-06-01 02:11:00,
2013-05-31 20:32:00,57.0,38.0,-100.00,ESE,113,3.0,5.0,47,-99.99,,,0.00,125.629997,,2013-06-01 02:32:00,
2013-05-31 20:42:00,57.0,38.0,-100.00,ESE,113,3.0,5.0,47,-99.99,,,0.00,125.629997,,2013-06-01 02:42:00,
2013-05-31 20:52:00,57.0,38.0,-100.00,ESE,113,3.0,5.0,47,-99.99,,,0.00,125.629997,,2013-06-01 02:52:00,
2013-05-31 21:01:00,57.0,38.0,-100.00,ESE,113,3.0,5.0,47,-99.99,,,0.00,125.629997,,2013-06-01 03:01:00,
2013-05-31 21:11:00,57.0,38.0,-100.00,ESE,113,3.0,5.0,47,-99.99,,,0.00,125.629997,,2013-06-01 03:11:00,
2013-05-31 21:33:00,51.0,38.0,-100.00,ESE,106,2.0,5.0,61,-99.99,,,0.00,10.340000,,2013-06-01 03:33:00,
2013-05-31 21:43:00,51.0,38.0,-100.00,ESE,106,2.0,5.0,61,-99.99,,,0.00,10.340000,,2013-06-01 03:43:00,
2013-05-31 21:53:00,51.0,38.0,-100.00,ESE,106,2.0,5.0,61,-99.99,,,0.00,10.340000,,2013-06-01 03:53:00,
2013-05-31 22:02:00,51.0,38.0,-100.00,ESE,106,2.0,5.0,61,-99.99,,,0.00,10.340000,,2013-06-01 04:02:00,
2013-05-31 22:12:00,51.0,38.0,-100.00,ESE,106,2.0,5.0,61,-99.99,,,0.00,10.340000,,2013-06-01 04:12:00,
2013-05-31 22:33:00,44.0,37.0,-100.00,SE,137,2.0,3.0,73,-99.99,,,0.00,0.000000,,2013-06-01 04:33:00,
2013-05-31 22:42:00,44.0,37.0,-100.00,SE,137,2.0,3.0,73,-99.99,,,0.00,0.000000,,2013-06-01 04:42:00,
2013-05-31 22:53:00,44.0,37.0,-100.00,SE,137,2.0,3.0,73,-99.99,,,0.00,0.000000,,2013-06-01 04:53:00,
2013-05-31 23:02:00,44.0,37.0,-100.00,SE,137,2.0,3.0,73,-99.99,,,0.00,0.000000,,2013-06-01 05:02:00,
2013-05-31 23:12:00,44.0,37.0,-100.00,SE,137,2.0,3.0,73,-99.99,,,0.00,0.000000,,2013-06-01 05:12:00,
2013-05-31 23:32:00,44.0,34.0,-100.00,NE,40,0.0,1.0,67,-99.99,,,-99.99,0.000000,,2013-06-01 05:32:00,
2013-05-31 23:42:00,44.0,34.0,-100.00,NE,40,0.0,1.0,67,-99.99,,,-99.99,0.000000,,2013-06-01 05:42:00,
2013-05-31 23:52:00,44.0,34.0,-100.00,NE,40,0.0,1.0,67,-99.99,,,-99.99,0.000000,,2013-06-01 05:52:00,